createdAt,value
2022-10-23T00:00:43.551Z,100901.22
2022-10-23T00:03:11.308Z,100900.13
2022-10-23T00:05:39.655Z,100897.44
2022-10-23T00:08:06.165Z,100902.38
2022-10-23T00:10:32.588Z,100902.88
2022-10-23T00:12:59.121Z,100899.28
2022-10-23T00:15:25.535Z,100901.72
2022-10-23T00:17:51.927Z,100901.28
2022-10-23T00:20:19.886Z,100906.00
2022-10-23T00:22:46.317Z,100908.63
2022-10-23T00:25:12.783Z,100911.59
2022-10-23T00:27:39.293Z,100902.84
2022-10-23T00:30:07.061Z,100906.38
2022-10-23T00:32:33.520Z,100905.88
2022-10-23T00:34:59.948Z,100893.34
2022-10-23T00:37:27.696Z,100906.91
2022-10-23T00:39:54.120Z,100904.66
2022-10-23T00:42:21.596Z,100900.06
2022-10-23T00:45:12.101Z,100913.09
2022-10-23T00:47:38.787Z,100914.28
2022-10-23T00:50:06.164Z,100906.75
2022-10-23T00:52:37.391Z,100906.59
2022-10-23T00:55:04.804Z,100899.75
2022-10-23T00:57:31.269Z,100903.34
2022-10-23T00:59:57.720Z,100891.69
2022-10-23T01:02:24.435Z,100888.06
2022-10-23T01:04:51.228Z,100889.13
2022-10-23T01:07:25.152Z,100886.41
2022-10-23T01:09:58.118Z,100882.66
2022-10-23T01:12:34.777Z,100877.38
2022-10-23T01:15:09.754Z,100877.66
2022-10-23T01:17:44.457Z,100870.72
2022-10-23T01:20:25.133Z,100888.50
2022-10-23T01:23:08.377Z,100878.69
2022-10-23T01:25:52.954Z,100886.81
2022-10-23T01:28:26.198Z,100886.75
2022-10-23T01:30:57.120Z,100883.66
2022-10-23T01:33:27.346Z,100886.66
2022-10-23T01:36:00.062Z,100888.44
2022-10-23T01:38:33.239Z,100875.28
2022-10-23T01:41:03.337Z,100864.66
2022-10-23T01:43:36.942Z,100869.16
2022-10-23T01:46:06.387Z,100864.69
2022-10-23T01:48:35.215Z,100859.53
2022-10-23T01:51:06.349Z,100849.31
2022-10-23T01:53:36.818Z,100854.06
2022-10-23T01:56:06.890Z,100850.53
2022-10-23T01:58:36.118Z,100848.59
2022-10-23T02:01:05.710Z,100851.00
2022-10-23T02:03:35.534Z,100860.78
2022-10-23T02:06:01.992Z,100859.34
2022-10-23T02:08:28.525Z,100864.44
2022-10-23T02:11:04.356Z,100861.16
2022-10-23T02:13:37.876Z,100854.63
2022-10-23T02:16:12.048Z,100857.84
2022-10-23T02:18:46.072Z,100860.47
2022-10-23T02:21:17.683Z,100850.63
2022-10-23T02:23:52.578Z,100851.38
2022-10-23T02:26:26.564Z,100842.34
2022-10-23T02:28:59.734Z,100838.03
2022-10-23T02:31:26.264Z,100836.28
2022-10-23T02:33:52.787Z,100840.72
2022-10-23T02:36:19.505Z,100850.34
2022-10-23T02:38:46.195Z,100845.34
2022-10-23T02:41:35.519Z,100835.28
2022-10-23T02:44:12.055Z,100832.78
2022-10-23T02:46:50.620Z,100837.75
2022-10-23T02:49:21.656Z,100828.69
2022-10-23T02:51:57.197Z,100829.63
2022-10-23T02:54:35.165Z,100840.63
2022-10-23T02:57:09.356Z,100829.75
2022-10-23T02:59:43.564Z,100825.06
2022-10-23T03:02:17.908Z,100823.53
2022-10-23T03:04:45.554Z,100834.81
2022-10-23T03:07:14.176Z,100825.81
2022-10-23T03:09:40.607Z,100822.03
2022-10-23T03:12:07.078Z,100815.03
2022-10-23T03:14:33.482Z,100818.50
2022-10-23T03:17:01.366Z,100806.16
2022-10-23T03:19:27.941Z,100795.91
2022-10-23T03:21:54.376Z,100797.06
2022-10-23T03:24:20.808Z,100793.66
2022-10-23T03:26:47.208Z,100793.69
2022-10-23T03:29:13.592Z,100793.69
2022-10-23T03:31:40.005Z,100806.25
2022-10-23T03:34:08.227Z,100798.84
2022-10-23T03:36:34.919Z,100800.19
2022-10-23T03:39:01.424Z,100791.22
2022-10-23T03:41:27.985Z,100794.63
2022-10-23T03:43:54.494Z,100787.84
2022-10-23T03:46:20.962Z,100784.81
2022-10-23T03:48:47.378Z,100782.81
2022-10-23T03:51:15.204Z,100798.44
2022-10-23T03:53:41.783Z,100794.09
2022-10-23T03:56:08.262Z,100786.56
2022-10-23T03:58:34.656Z,100780.84
2022-10-23T04:01:01.449Z,100775.00
2022-10-23T04:03:27.861Z,100772.38
2022-10-23T04:05:54.276Z,100776.16
2022-10-23T04:08:22.019Z,100792.13
2022-10-23T04:10:48.410Z,100781.75
2022-10-23T04:13:14.920Z,100793.69
2022-10-23T04:15:41.348Z,100795.63
2022-10-23T04:18:07.937Z,100793.84
2022-10-23T04:20:34.423Z,100792.88
2022-10-23T04:23:01.160Z,100784.81
2022-10-23T04:25:29.048Z,100783.38
2022-10-23T04:27:55.451Z,100789.69
2022-10-23T04:30:21.880Z,100784.31
2022-10-23T04:32:50.214Z,100780.84
2022-10-23T04:35:16.851Z,100778.78
2022-10-23T04:37:43.565Z,100774.97
2022-10-23T04:40:10.521Z,100777.31
2022-10-23T04:42:38.262Z,100771.38
2022-10-23T04:45:05.633Z,100767.25
2022-10-23T04:47:32.193Z,100765.13
2022-10-23T04:49:58.720Z,100777.63
2022-10-23T04:52:25.264Z,100775.13
2022-10-23T04:54:51.895Z,100778.69
2022-10-23T04:57:18.340Z,100781.50
2022-10-23T04:59:46.160Z,100770.50
2022-10-23T05:02:12.558Z,100778.75
2022-10-23T05:04:39.124Z,100778.34
2022-10-23T05:07:05.575Z,100780.78
2022-10-23T05:09:31.984Z,100775.44
2022-10-23T05:11:58.454Z,100780.31
2022-10-23T05:14:24.932Z,100775.00
2022-10-23T05:16:57.334Z,100774.06
2022-10-23T05:19:27.316Z,100783.09
2022-10-23T05:21:55.105Z,100784.72
2022-10-23T05:24:21.896Z,100783.28
2022-10-23T05:26:48.457Z,100784.59
2022-10-23T05:29:14.873Z,100776.53
2022-10-23T05:31:41.271Z,100764.84
2022-10-23T05:34:13.325Z,100763.06
2022-10-23T05:36:40.112Z,100751.81
2022-10-23T05:39:06.578Z,100753.31
2022-10-23T05:41:33.001Z,100758.81
2022-10-23T05:43:59.381Z,100749.47
2022-10-23T05:46:25.852Z,100751.06
2022-10-23T05:48:52.932Z,100757.00
2022-10-23T05:51:21.465Z,100754.25
2022-10-23T05:53:48.171Z,100752.97
2022-10-23T05:56:14.658Z,100751.78
2022-10-23T05:58:41.191Z,100744.25
2022-10-23T06:01:08.689Z,100751.03
2022-10-23T06:03:35.726Z,100752.56
2022-10-23T06:06:02.236Z,100745.91
2022-10-23T06:08:30.613Z,100748.78
2022-10-23T06:10:57.191Z,100755.88
2022-10-23T06:13:23.641Z,100744.06
2022-10-23T06:15:50.110Z,100753.03
2022-10-23T06:18:16.561Z,100754.16
2022-10-23T06:20:42.951Z,100738.16
2022-10-23T06:23:09.367Z,100747.25
2022-10-23T06:25:37.128Z,100744.72
2022-10-23T06:28:03.541Z,100748.56
2022-10-23T06:30:30.040Z,100748.47
2022-10-23T06:32:56.613Z,100753.53
2022-10-23T06:35:23.050Z,100748.13
2022-10-23T06:37:49.444Z,100748.63
2022-10-23T06:40:15.967Z,100742.50
2022-10-23T06:42:44.004Z,100741.44
2022-10-23T06:45:10.612Z,100736.38
2022-10-23T06:47:37.007Z,100728.91
2022-10-23T06:50:04.032Z,100736.88
2022-10-23T06:52:45.824Z,100736.66
2022-10-23T06:55:12.723Z,100733.59
2022-10-23T06:57:39.105Z,100728.03
2022-10-23T07:00:08.651Z,100731.41
2022-10-23T07:02:35.378Z,100728.38
2022-10-23T07:05:01.834Z,100715.09
2022-10-23T07:07:29.322Z,100714.66
2022-10-23T07:09:55.915Z,100715.53
2022-10-23T07:12:22.575Z,100726.44
2022-10-23T07:14:49.020Z,100723.25
2022-10-23T07:17:16.881Z,100726.47
2022-10-23T07:19:43.272Z,100722.00
2022-10-23T07:22:11.960Z,100724.81
2022-10-23T07:24:41.415Z,100722.97
2022-10-23T07:27:07.904Z,100718.22
2022-10-23T07:29:34.300Z,100710.03
2022-10-23T07:32:00.739Z,100713.38
2022-10-23T07:34:28.491Z,100711.66
2022-10-23T07:36:54.922Z,100705.50
2022-10-23T07:39:21.354Z,100709.88
2022-10-23T07:41:47.807Z,100705.88
2022-10-23T07:44:14.253Z,100708.53
2022-10-23T07:46:40.723Z,100711.50
2022-10-23T07:49:07.120Z,100707.38
2022-10-23T07:51:34.853Z,100708.06
2022-10-23T07:54:01.287Z,100700.66
2022-10-23T07:56:28.323Z,100707.75
2022-10-23T07:58:54.716Z,100706.22
2022-10-23T08:01:34.201Z,100702.94
2022-10-23T08:04:00.971Z,100699.50
2022-10-23T08:06:27.443Z,100701.44
2022-10-23T08:08:55.289Z,100692.94
2022-10-23T08:11:24.609Z,100701.00
2022-10-23T08:13:51.907Z,100705.69
2022-10-23T08:16:18.484Z,100693.78
2022-10-23T08:18:44.885Z,100700.03
2022-10-23T08:21:11.987Z,100699.00
2022-10-23T08:23:38.503Z,100689.97
2022-10-23T08:26:06.933Z,100691.66
2022-10-23T08:28:33.920Z,100684.53
2022-10-23T08:31:07.995Z,100689.25
2022-10-23T08:33:34.529Z,100694.34
2022-10-23T08:36:01.011Z,100707.16
2022-10-23T08:38:27.446Z,100694.72
2022-10-23T08:40:53.931Z,100693.75
2022-10-23T08:43:29.877Z,100682.91
2022-10-23T08:46:00.997Z,100691.81
2022-10-23T08:48:33.026Z,100681.84
2022-10-23T08:51:05.409Z,100679.34
2022-10-23T08:53:39.842Z,100681.84
2022-10-23T08:56:14.077Z,100667.84
2022-10-23T08:58:46.828Z,100666.59
2022-10-23T09:01:37.527Z,100657.59
2022-10-23T09:04:05.154Z,100659.72
2022-10-23T09:06:36.436Z,100666.97
2022-10-23T09:09:18.150Z,100661.06
2022-10-23T09:11:53.854Z,100664.72
2022-10-23T09:14:50.457Z,100666.97
2022-10-23T09:17:24.583Z,100667.00
2022-10-23T09:19:59.269Z,100671.13
2022-10-23T09:22:27.077Z,100664.09
2022-10-23T09:24:54.019Z,100668.81
2022-10-23T09:27:20.655Z,100676.44
2022-10-23T09:29:51.635Z,100678.81
2022-10-23T09:32:18.818Z,100683.69
2022-10-23T09:34:54.062Z,100682.09
2022-10-23T09:37:23.598Z,100681.72
2022-10-23T09:40:01.356Z,100684.75
2022-10-23T09:42:27.904Z,100687.31
2022-10-23T09:44:55.802Z,100673.84
2022-10-23T09:47:24.603Z,100671.69
2022-10-23T09:49:52.703Z,100667.94
2022-10-23T09:52:25.361Z,100671.25
2022-10-23T09:54:55.708Z,100665.44
2022-10-23T09:57:27.194Z,100658.50
2022-10-23T09:59:57.132Z,100668.31
2022-10-23T10:02:28.778Z,100672.97
2022-10-23T10:04:55.459Z,100661.88
2022-10-23T10:07:24.877Z,100654.88
2022-10-23T10:09:53.122Z,100655.88
2022-10-23T10:12:36.860Z,100660.66
2022-10-23T10:15:18.114Z,100653.47
2022-10-23T10:17:57.009Z,100649.38
2022-10-23T10:20:43.408Z,100644.53
2022-10-23T10:23:17.906Z,100641.91
2022-10-23T10:25:53.170Z,100631.03
2022-10-23T10:28:30.326Z,100622.72
2022-10-23T10:31:08.894Z,100615.22
2022-10-23T10:33:42.615Z,100609.84
2022-10-23T10:36:18.335Z,100605.88
2022-10-23T10:38:48.957Z,100615.31
2022-10-23T10:41:32.406Z,100612.41
2022-10-23T10:44:12.647Z,100602.16
2022-10-23T10:46:47.725Z,100598.25
2022-10-23T10:49:19.934Z,100596.09
2022-10-23T10:51:54.881Z,100589.75
2022-10-23T10:54:37.130Z,100590.59
2022-10-23T10:57:12.940Z,100593.41
2022-10-23T10:59:44.664Z,100573.75
2022-10-23T11:02:23.457Z,100576.47
2022-10-23T11:04:56.245Z,100581.56
2022-10-23T11:07:29.292Z,100579.25
2022-10-23T11:09:59.756Z,100576.25
2022-10-23T11:12:27.921Z,100574.50
2022-10-23T11:14:55.211Z,100565.69
2022-10-23T11:17:26.773Z,100563.84
2022-10-23T11:20:01.658Z,100555.13
2022-10-23T11:22:35.797Z,100558.13
2022-10-23T11:25:31.962Z,100548.13
2022-10-23T11:28:13.109Z,100544.81
2022-10-23T11:30:54.358Z,100544.50
2022-10-23T11:33:52.562Z,100541.59
2022-10-23T11:36:20.456Z,100531.72
2022-10-23T11:38:49.370Z,100530.38
2022-10-23T11:41:25.350Z,100526.38
2022-10-23T11:43:55.471Z,100521.63
2022-10-23T11:46:39.620Z,100515.06
2022-10-23T11:49:20.601Z,100515.88
2022-10-23T11:51:47.035Z,100512.72
2022-10-23T11:54:21.730Z,100499.16
2022-10-23T11:56:53.735Z,100503.00
2022-10-23T11:59:25.762Z,100491.19
2022-10-23T12:01:54.448Z,100488.75
2022-10-23T12:04:26.178Z,100481.69
2022-10-23T12:06:55.950Z,100473.09
2022-10-23T12:09:26.643Z,100481.69
2022-10-23T12:12:14.778Z,100479.31
2022-10-23T12:14:43.439Z,100478.16
2022-10-23T12:17:29.594Z,100461.59
2022-10-23T12:20:04.348Z,100457.94
2022-10-23T12:22:42.012Z,100454.53
2022-10-23T12:25:14.586Z,100452.63
2022-10-23T12:27:47.406Z,100441.88
2022-10-23T12:30:22.513Z,100449.63
2022-10-23T12:33:11.409Z,100443.69
2022-10-23T12:36:09.189Z,100433.34
2022-10-23T12:38:44.113Z,100427.56
2022-10-23T12:41:14.136Z,100412.47
2022-10-23T12:43:44.125Z,100409.31
2022-10-23T12:46:27.587Z,100397.78
2022-10-23T12:48:55.964Z,100391.91
2022-10-23T12:51:24.977Z,100394.84
2022-10-23T12:53:51.571Z,100386.34
2022-10-23T12:56:18.938Z,100391.09
2022-10-23T12:58:49.501Z,100396.63
2022-10-23T13:01:23.972Z,100398.50
2022-10-23T13:03:52.295Z,100386.03
2022-10-23T13:06:19.216Z,100386.03
2022-10-23T13:08:48.176Z,100379.44
2022-10-23T13:11:17.222Z,100371.94
2022-10-23T13:13:44.023Z,100376.47
2022-10-23T13:16:14.492Z,100368.38
2022-10-23T13:18:41.683Z,100363.63
2022-10-23T13:21:16.481Z,100359.84
2022-10-23T13:23:43.534Z,100345.34
2022-10-23T13:26:25.544Z,100328.34
2022-10-23T13:28:52.692Z,100332.75
2022-10-23T13:31:30.136Z,100320.75
2022-10-23T13:34:16.735Z,100313.31
2022-10-23T13:36:53.554Z,100306.53
2022-10-23T13:39:24.250Z,100317.72
2022-10-23T13:41:52.124Z,100326.47
2022-10-23T13:44:20.081Z,100318.22
2022-10-23T13:46:47.055Z,100324.47
2022-10-23T13:49:13.458Z,100329.34
2022-10-23T13:51:44.379Z,100335.28
2022-10-23T13:54:15.021Z,100334.69
2022-10-23T13:56:41.489Z,100324.13
2022-10-23T13:59:10.762Z,100332.88
2022-10-23T14:01:37.327Z,100329.53
2022-10-23T14:04:05.252Z,100333.94
2022-10-23T14:06:32.044Z,100324.66
2022-10-23T14:08:58.859Z,100324.50
2022-10-23T14:11:25.954Z,100305.97
2022-10-23T14:13:52.334Z,100310.69
2022-10-23T14:16:20.696Z,100299.44
2022-10-23T14:18:47.457Z,100303.06
2022-10-23T14:21:16.463Z,100286.41
2022-10-23T14:23:42.867Z,100281.19
2022-10-23T14:26:11.771Z,100272.53
2022-10-23T14:28:38.807Z,100270.97
2022-10-23T14:31:06.444Z,100264.38
2022-10-23T14:33:34.230Z,100272.38
2022-10-23T14:36:00.928Z,100258.13
2022-10-23T14:38:27.966Z,100244.19
2022-10-23T14:40:54.372Z,100250.66
2022-10-23T14:43:21.189Z,100246.06
2022-10-23T14:45:47.896Z,100261.34
2022-10-23T14:48:14.301Z,100250.78
2022-10-23T14:50:45.392Z,100254.81
2022-10-23T14:53:11.941Z,100245.56
2022-10-23T14:55:39.054Z,100251.56
2022-10-23T14:58:05.907Z,100241.22
2022-10-23T15:00:32.554Z,100231.91
2022-10-23T15:02:59.427Z,100220.69
2022-10-23T15:05:26.020Z,100215.94
2022-10-23T15:07:54.808Z,100210.13
2022-10-23T15:10:21.251Z,100195.31
2022-10-23T15:12:47.784Z,100178.78
2022-10-23T15:15:14.212Z,100177.69
2022-10-23T15:17:40.597Z,100171.44
2022-10-23T15:20:07.540Z,100180.94
2022-10-23T15:22:33.968Z,100186.06
2022-10-23T15:25:01.704Z,100178.03
2022-10-23T15:27:28.128Z,100172.88
2022-10-23T15:29:54.529Z,100179.19
2022-10-23T15:32:20.941Z,100185.84
2022-10-23T15:34:47.340Z,100187.03
2022-10-23T15:37:13.981Z,100181.84
2022-10-23T15:39:40.392Z,100169.28
2022-10-23T15:42:08.116Z,100162.31
2022-10-23T15:44:34.810Z,100162.13
2022-10-23T15:47:01.462Z,100167.66
2022-10-23T15:49:28.740Z,100162.69
2022-10-23T15:51:55.265Z,100146.28
2022-10-23T15:54:22.633Z,100150.88
2022-10-23T15:56:50.854Z,100160.22
2022-10-23T15:59:20.611Z,100151.72
2022-10-23T16:01:47.300Z,100150.53
2022-10-23T16:04:14.002Z,100139.31
2022-10-23T16:06:40.431Z,100132.22
2022-10-23T16:09:06.876Z,100117.66
2022-10-23T16:11:35.545Z,100109.00
2022-10-23T16:14:01.983Z,100096.03
2022-10-23T16:16:30.307Z,100096.22
2022-10-23T16:18:58.807Z,100092.44
2022-10-23T16:21:27.758Z,100094.69
2022-10-23T16:23:56.141Z,100097.22
2022-10-23T16:26:23.395Z,100106.91
2022-10-23T16:28:52.705Z,100107.59
2022-10-23T16:31:23.835Z,100110.44
2022-10-23T16:33:52.410Z,100103.97
2022-10-23T16:36:19.645Z,100097.56
2022-10-23T16:38:46.152Z,100097.94
2022-10-23T16:41:12.556Z,100094.66
2022-10-23T16:43:39.150Z,100092.59
2022-10-23T16:46:07.268Z,100104.94
2022-10-23T16:48:34.931Z,100101.78
2022-10-23T16:51:05.808Z,100086.88
2022-10-23T16:53:32.551Z,100079.03
2022-10-23T16:55:59.100Z,100067.09
2022-10-23T16:58:26.238Z,100071.44
2022-10-23T17:00:57.184Z,100058.16
2022-10-23T17:03:23.707Z,100050.47
2022-10-23T17:05:50.168Z,100038.25
2022-10-23T17:08:17.879Z,100029.53
2022-10-23T17:10:44.344Z,100024.78
2022-10-23T17:13:10.819Z,100020.72
2022-10-23T17:15:37.266Z,100034.91
2022-10-23T17:18:03.832Z,100033.13
2022-10-23T17:20:30.267Z,100038.28
2022-10-23T17:23:17.940Z,100039.25
2022-10-23T17:25:44.347Z,100042.31
2022-10-23T17:28:10.749Z,100034.38
2022-10-23T17:30:37.725Z,100029.56
2022-10-23T17:33:04.166Z,100038.69
2022-10-23T17:35:30.573Z,100044.03
2022-10-23T17:37:56.974Z,100045.47
2022-10-23T17:40:25.266Z,100048.41
2022-10-23T17:42:51.784Z,100049.25
2022-10-23T17:45:18.181Z,100071.31
2022-10-23T17:47:44.632Z,100068.25
2022-10-23T17:50:11.041Z,100087.41
2022-10-23T17:52:37.719Z,100096.13
2022-10-23T17:55:04.852Z,100109.50
2022-10-23T17:57:32.609Z,100116.94
2022-10-23T17:59:59.071Z,100135.56
2022-10-23T18:02:25.699Z,100151.13
2022-10-23T18:04:52.242Z,100159.47
2022-10-23T18:07:18.894Z,100166.22
2022-10-23T18:09:45.410Z,100188.03
2022-10-23T18:12:11.816Z,100195.72
2022-10-23T18:14:39.602Z,100188.81
2022-10-23T18:17:06.034Z,100189.44
2022-10-23T18:19:32.471Z,100185.06
2022-10-23T18:21:58.965Z,100174.00
2022-10-23T18:24:25.427Z,100161.63
2022-10-23T18:26:52.175Z,100171.00
2022-10-23T18:29:18.608Z,100163.75
2022-10-23T18:31:46.580Z,100159.34
2022-10-23T18:34:17.026Z,100163.47
2022-10-23T18:36:43.837Z,100163.59
2022-10-23T18:39:13.584Z,100164.25
2022-10-23T18:41:42.069Z,100165.69
2022-10-23T18:44:10.454Z,100172.03
2022-10-23T18:46:37.448Z,100175.53
2022-10-23T18:49:05.484Z,100173.53
2022-10-23T18:51:33.771Z,100183.19
2022-10-23T18:54:01.938Z,100196.53
2022-10-23T18:56:28.384Z,100194.63
2022-10-23T18:58:57.147Z,100193.34
2022-10-23T19:01:25.979Z,100191.34
2022-10-23T19:03:53.405Z,100189.13
2022-10-23T19:06:23.133Z,100198.56
2022-10-23T19:08:49.982Z,100191.81
2022-10-23T19:11:18.919Z,100187.09
2022-10-23T19:13:45.338Z,100194.66
2022-10-23T19:16:15.891Z,100192.34
2022-10-23T19:18:47.023Z,100191.91
2022-10-23T19:21:13.953Z,100201.63
2022-10-23T19:23:43.002Z,100196.50
2022-10-23T19:26:12.238Z,100196.25
2022-10-23T19:28:42.011Z,100188.81
2022-10-23T19:31:09.191Z,100203.50
2022-10-23T19:33:36.086Z,100200.41
2022-10-23T19:36:05.413Z,100193.41
2022-10-23T19:38:33.031Z,100196.06
2022-10-23T19:41:00.832Z,100187.78
2022-10-23T19:43:27.541Z,100183.41
2022-10-23T19:45:53.967Z,100185.38
2022-10-23T19:48:20.412Z,100184.53
2022-10-23T19:50:46.840Z,100188.34
2022-10-23T19:53:13.284Z,100183.69
2022-10-23T19:55:39.663Z,100182.91
2022-10-23T19:58:07.403Z,100173.84
2022-10-23T20:00:33.855Z,100184.16
2022-10-23T20:03:00.244Z,100178.44
2022-10-23T20:05:27.094Z,100169.72
2022-10-23T20:07:53.668Z,100166.13
2022-10-23T20:10:20.148Z,100159.44
2022-10-23T20:12:56.389Z,100150.69
2022-10-23T20:15:24.765Z,100141.19
2022-10-23T20:17:51.152Z,100125.53
2022-10-23T20:20:17.967Z,100092.03
2022-10-23T20:22:44.430Z,100070.78
2022-10-23T20:25:10.856Z,100065.84
2022-10-23T20:30:09.907Z,100027.38
2022-10-23T20:32:37.811Z,100032.47
2022-10-23T20:35:04.822Z,100043.38
2022-10-23T20:37:31.905Z,100057.41
2022-10-23T20:39:58.295Z,100087.84
2022-10-23T20:42:24.662Z,100095.97
2022-10-23T20:44:51.058Z,100052.50
2022-10-23T20:47:17.452Z,100003.69
2022-10-23T20:49:45.188Z,99961.69
2022-10-23T20:52:11.596Z,99968.41
2022-10-23T20:54:38.004Z,99962.59
2022-10-23T20:57:04.435Z,100025.72
2022-10-23T20:59:30.846Z,100063.66
2022-10-23T21:01:57.424Z,100054.50
2022-10-23T21:04:26.059Z,100042.19
2022-10-23T21:07:09.576Z,100028.41
2022-10-23T21:09:37.427Z,100014.41
2022-10-23T21:12:04.594Z,100010.31
2022-10-23T21:14:31.014Z,100023.44
2022-10-23T21:16:57.453Z,100033.56
2022-10-23T21:19:23.875Z,100028.97
2022-10-23T21:21:50.261Z,100041.06
2022-10-23T21:24:18.021Z,100035.03
2022-10-23T21:26:45.261Z,100032.41
2022-10-23T21:29:18.541Z,100036.44
2022-10-23T21:31:50.601Z,100049.56
2022-10-23T21:34:16.995Z,100052.44
2022-10-23T21:37:00.185Z,100054.25
2022-10-23T21:39:31.216Z,100054.66
2022-10-23T21:41:57.631Z,100070.06
2022-10-23T21:44:24.035Z,100064.13
2022-10-23T21:46:50.431Z,100076.59
2022-10-23T21:49:16.931Z,100070.25
2022-10-23T21:51:43.317Z,100065.69
2022-10-23T21:54:12.604Z,100062.06
2022-10-23T21:56:43.368Z,100053.91
2022-10-23T21:59:12.743Z,100048.31
2022-10-23T22:01:39.556Z,100042.97
2022-10-23T22:04:06.037Z,100036.91
2022-10-23T22:06:32.430Z,100029.41
2022-10-23T22:09:00.879Z,100029.69
2022-10-23T22:11:28.004Z,100026.50
2022-10-23T22:13:56.611Z,100024.78
2022-10-23T22:16:23.128Z,100018.97
2022-10-23T22:18:49.950Z,100012.13
2022-10-23T22:21:19.265Z,100020.03
2022-10-23T22:23:46.292Z,100012.56
2022-10-23T22:26:20.599Z,100019.94
2022-10-23T22:28:46.997Z,100029.09
2022-10-23T22:31:16.432Z,100042.50
2022-10-23T22:33:43.156Z,100052.03
2022-10-23T22:36:10.063Z,100058.31
2022-10-23T22:38:36.467Z,100053.94
2022-10-23T22:41:04.300Z,100054.16
2022-10-23T22:43:30.850Z,100056.38
2022-10-23T22:46:02.837Z,100057.19
2022-10-23T22:48:30.678Z,100067.09
2022-10-23T22:50:57.182Z,100067.56
2022-10-23T22:53:23.670Z,100072.06
2022-10-23T22:55:50.327Z,100061.06
2022-10-23T22:58:16.764Z,100066.72
2022-10-23T23:00:43.740Z,100077.84
2022-10-23T23:03:10.453Z,100086.13
2022-10-23T23:08:14.770Z,100083.97
2022-10-23T23:10:41.389Z,100083.28
2022-10-23T23:13:07.989Z,100079.53
2022-10-23T23:15:39.740Z,100077.09
2022-10-23T23:18:06.285Z,100068.13
2022-10-23T23:20:34.286Z,100071.28
2022-10-23T23:23:02.171Z,100069.75
2022-10-23T23:25:29.228Z,100074.19
2022-10-23T23:27:55.635Z,100064.38
2022-10-23T23:30:22.678Z,100069.63
2022-10-23T23:32:49.699Z,100072.56
2022-10-23T23:35:16.261Z,100066.00
2022-10-23T23:37:42.699Z,100072.19
2022-10-23T23:40:12.176Z,100074.66
2022-10-23T23:42:38.715Z,100068.59
2022-10-23T23:45:14.398Z,100059.81
2022-10-23T23:47:41.784Z,100056.19
2022-10-23T23:50:10.017Z,100057.03
2022-10-23T23:52:36.473Z,100047.41
2022-10-23T23:55:03.431Z,100053.22
2022-10-23T23:57:31.404Z,100051.00
2022-10-23T23:59:57.946Z,100056.00
